sensor_id;sensor_type;location;lat;lon;timestamp;P1;durP1;ratioP1;P2;durP2;ratioP2
1366;SDS011;16877;48.810;9.282;2023-01-28T00:01:12;6.57;;;5.70;;
1366;SDS011;16877;48.810;9.282;2023-01-28T00:03:41;6.60;;;6.00;;
1366;SDS011;16877;48.810;9.282;2023-01-28T00:06:10;7.17;;;5.80;;
1366;SDS011;16877;48.810;9.282;2023-01-28T00:08:40;8.47;;;7.10;;
1366;SDS011;16877;48.810;9.282;2023-01-28T00:11:09;8.50;;;7.13;;
1366;SDS011;16877;48.810;9.282;2023-01-28T00:13:39;7.33;;;6.57;;
1366;SDS011;16877;48.810;9.282;2023-01-28T00:16:07;7.93;;;6.60;;
1366;SDS011;16877;48.810;9.282;2023-01-28T00:18:41;7.60;;;6.70;;
1366;SDS011;16877;48.810;9.282;2023-01-28T00:21:11;7.23;;;6.50;;
1366;SDS011;16877;48.810;9.282;2023-01-28T00:23:39;7.70;;;6.80;;
1366;SDS011;16877;48.810;9.282;2023-01-28T00:26:09;6.50;;;5.90;;
1366;SDS011;16877;48.810;9.282;2023-01-28T00:28:40;7.07;;;6.10;;
1366;SDS011;16877;48.810;9.282;2023-01-28T00:31:09;8.03;;;6.57;;
1366;SDS011;16877;48.810;9.282;2023-01-28T00:33:40;7.20;;;6.20;;
1366;SDS011;16877;48.810;9.282;2023-01-28T00:36:08;6.97;;;6.00;;
1366;SDS011;16877;48.810;9.282;2023-01-28T00:38:36;6.67;;;5.70;;
1366;SDS011;16877;48.810;9.282;2023-01-28T00:41:07;6.83;;;6.13;;
1366;SDS011;16877;48.810;9.282;2023-01-28T00:43:35;7.00;;;6.20;;
1366;SDS011;16877;48.810;9.282;2023-01-28T00:46:04;6.73;;;6.03;;
1366;SDS011;16877;48.810;9.282;2023-01-28T00:48:32;7.13;;;6.43;;
1366;SDS011;16877;48.810;9.282;2023-01-28T00:50:59;7.33;;;6.63;;
1366;SDS011;16877;48.810;9.282;2023-01-28T00:53:27;7.50;;;6.40;;
1366;SDS011;16877;48.810;9.282;2023-01-28T00:55:54;7.03;;;5.87;;
1366;SDS011;16877;48.810;9.282;2023-01-28T00:58:21;7.00;;;6.30;;
1366;SDS011;16877;48.810;9.282;2023-01-28T01:00:49;7.13;;;6.40;;
1366;SDS011;16877;48.810;9.282;2023-01-28T01:03:32;6.90;;;5.50;;
1366;SDS011;16877;48.810;9.282;2023-01-28T01:06:00;6.57;;;5.70;;
1366;SDS011;16877;48.810;9.282;2023-01-28T01:08:27;6.10;;;5.50;;
1366;SDS011;16877;48.810;9.282;2023-01-28T01:11:04;7.10;;;6.23;;
1366;SDS011;16877;48.810;9.282;2023-01-28T01:13:33;7.40;;;5.97;;
1366;SDS011;16877;48.810;9.282;2023-01-28T01:16:00;6.60;;;5.87;;
1366;SDS011;16877;48.810;9.282;2023-01-28T01:18:45;5.33;;;4.77;;
1366;SDS011;16877;48.810;9.282;2023-01-28T01:21:13;5.87;;;5.23;;
1366;SDS011;16877;48.810;9.282;2023-01-28T01:23:42;6.30;;;5.53;;
1366;SDS011;16877;48.810;9.282;2023-01-28T01:26:12;5.90;;;5.30;;
1366;SDS011;16877;48.810;9.282;2023-01-28T01:28:40;6.60;;;5.90;;
1366;SDS011;16877;48.810;9.282;2023-01-28T01:31:09;6.57;;;5.50;;
1366;SDS011;16877;48.810;9.282;2023-01-28T01:33:38;6.40;;;5.80;;
1366;SDS011;16877;48.810;9.282;2023-01-28T01:36:09;6.23;;;5.57;;
1366;SDS011;16877;48.810;9.282;2023-01-28T01:38:38;6.07;;;5.43;;
1366;SDS011;16877;48.810;9.282;2023-01-28T01:41:06;6.77;;;5.73;;
1366;SDS011;16877;48.810;9.282;2023-01-28T01:43:45;6.30;;;5.67;;
1366;SDS011;16877;48.810;9.282;2023-01-28T01:46:14;6.97;;;5.73;;
1366;SDS011;16877;48.810;9.282;2023-01-28T01:48:44;5.63;;;5.10;;
1366;SDS011;16877;48.810;9.282;2023-01-28T01:51:14;5.60;;;5.00;;
1366;SDS011;16877;48.810;9.282;2023-01-28T01:53:45;6.97;;;5.90;;
1366;SDS011;16877;48.810;9.282;2023-01-28T01:56:16;6.50;;;5.43;;
1366;SDS011;16877;48.810;9.282;2023-01-28T01:58:48;6.23;;;4.87;;
1366;SDS011;16877;48.810;9.282;2023-01-28T02:01:19;6.47;;;5.83;;
1366;SDS011;16877;48.810;9.282;2023-01-28T02:03:51;6.80;;;5.93;;
1366;SDS011;16877;48.810;9.282;2023-01-28T02:06:23;6.40;;;4.90;;
1366;SDS011;16877;48.810;9.282;2023-01-28T02:08:52;6.50;;;5.33;;
1366;SDS011;16877;48.810;9.282;2023-01-28T02:11:22;6.10;;;5.50;;
1366;SDS011;16877;48.810;9.282;2023-01-28T02:13:53;5.47;;;4.80;;
1366;SDS011;16877;48.810;9.282;2023-01-28T02:16:23;6.03;;;5.13;;
1366;SDS011;16877;48.810;9.282;2023-01-28T02:18:51;6.63;;;4.90;;
1366;SDS011;16877;48.810;9.282;2023-01-28T02:21:27;5.23;;;4.57;;
1366;SDS011;16877;48.810;9.282;2023-01-28T02:24:10;5.90;;;5.30;;
1366;SDS011;16877;48.810;9.282;2023-01-28T02:27:04;5.10;;;4.60;;
1366;SDS011;16877;48.810;9.282;2023-01-28T02:29:48;5.53;;;4.97;;
1366;SDS011;16877;48.810;9.282;2023-01-28T02:32:20;6.30;;;5.43;;
1366;SDS011;16877;48.810;9.282;2023-01-28T02:34:55;6.30;;;5.60;;
1366;SDS011;16877;48.810;9.282;2023-01-28T02:37:27;5.80;;;5.20;;
1366;SDS011;16877;48.810;9.282;2023-01-28T02:40:01;5.30;;;4.80;;
1366;SDS011;16877;48.810;9.282;2023-01-28T02:42:35;6.00;;;5.40;;
1366;SDS011;16877;48.810;9.282;2023-01-28T02:45:09;5.40;;;4.83;;
1366;SDS011;16877;48.810;9.282;2023-01-28T02:47:42;6.27;;;4.80;;
1366;SDS011;16877;48.810;9.282;2023-01-28T02:50:25;5.50;;;4.83;;
1366;SDS011;16877;48.810;9.282;2023-01-28T02:53:02;5.87;;;4.87;;
1366;SDS011;16877;48.810;9.282;2023-01-28T02:55:56;5.70;;;4.57;;
1366;SDS011;16877;48.810;9.282;2023-01-28T02:58:34;4.90;;;4.43;;
1366;SDS011;16877;48.810;9.282;2023-01-28T03:01:09;6.40;;;4.80;;
1366;SDS011;16877;48.810;9.282;2023-01-28T03:03:43;5.13;;;4.30;;
1366;SDS011;16877;48.810;9.282;2023-01-28T03:06:17;5.17;;;4.20;;
1366;SDS011;16877;48.810;9.282;2023-01-28T03:08:57;4.97;;;4.10;;
1366;SDS011;16877;48.810;9.282;2023-01-28T03:11:43;5.43;;;3.97;;
1366;SDS011;16877;48.810;9.282;2023-01-28T03:14:31;5.13;;;4.63;;
1366;SDS011;16877;48.810;9.282;2023-01-28T03:17:19;4.90;;;4.37;;
1366;SDS011;16877;48.810;9.282;2023-01-28T03:20:09;5.37;;;4.87;;
1366;SDS011;16877;48.810;9.282;2023-01-28T03:22:55;5.83;;;5.10;;
1366;SDS011;16877;48.810;9.282;2023-01-28T03:25:44;5.47;;;4.77;;
1366;SDS011;16877;48.810;9.282;2023-01-28T03:28:32;7.37;;;5.87;;
1366;SDS011;16877;48.810;9.282;2023-01-28T03:31:20;6.17;;;5.57;;
1366;SDS011;16877;48.810;9.282;2023-01-28T03:34:07;6.10;;;5.50;;
1366;SDS011;16877;48.810;9.282;2023-01-28T03:36:53;6.20;;;5.33;;
1366;SDS011;16877;48.810;9.282;2023-01-28T03:39:23;5.90;;;5.30;;
1366;SDS011;16877;48.810;9.282;2023-01-28T03:41:55;5.73;;;5.10;;
1366;SDS011;16877;48.810;9.282;2023-01-28T03:44:27;6.03;;;5.37;;
1366;SDS011;16877;48.810;9.282;2023-01-28T03:47:12;6.20;;;5.60;;
1366;SDS011;16877;48.810;9.282;2023-01-28T03:49:42;7.90;;;6.07;;
1366;SDS011;16877;48.810;9.282;2023-01-28T03:52:13;6.83;;;5.70;;
1366;SDS011;16877;48.810;9.282;2023-01-28T03:54:40;6.53;;;5.83;;
1366;SDS011;16877;48.810;9.282;2023-01-28T03:57:08;6.40;;;5.40;;
1366;SDS011;16877;48.810;9.282;2023-01-28T03:59:36;5.70;;;5.20;;
1366;SDS011;16877;48.810;9.282;2023-01-28T04:02:03;5.50;;;5.00;;
1366;SDS011;16877;48.810;9.282;2023-01-28T04:04:30;6.80;;;6.10;;
1366;SDS011;16877;48.810;9.282;2023-01-28T04:06:59;7.33;;;6.63;;
1366;SDS011;16877;48.810;9.282;2023-01-28T04:09:27;8.20;;;7.40;;
1366;SDS011;16877;48.810;9.282;2023-01-28T04:11:54;6.57;;;5.90;;
1366;SDS011;16877;48.810;9.282;2023-01-28T04:14:22;6.97;;;6.27;;
1366;SDS011;16877;48.810;9.282;2023-01-28T04:16:49;7.37;;;6.60;;
1366;SDS011;16877;48.810;9.282;2023-01-28T04:19:19;6.73;;;6.03;;
1366;SDS011;16877;48.810;9.282;2023-01-28T04:21:46;7.40;;;6.50;;
1366;SDS011;16877;48.810;9.282;2023-01-28T04:24:15;6.70;;;6.00;;
1366;SDS011;16877;48.810;9.282;2023-01-28T04:26:47;7.10;;;6.40;;
1366;SDS011;16877;48.810;9.282;2023-01-28T04:29:14;7.57;;;6.87;;
1366;SDS011;16877;48.810;9.282;2023-01-28T04:31:42;7.00;;;6.30;;
1366;SDS011;16877;48.810;9.282;2023-01-28T04:34:09;7.80;;;6.80;;
1366;SDS011;16877;48.810;9.282;2023-01-28T04:36:37;8.20;;;7.40;;
1366;SDS011;16877;48.810;9.282;2023-01-28T04:39:04;8.03;;;7.20;;
1366;SDS011;16877;48.810;9.282;2023-01-28T04:41:34;7.33;;;6.63;;
1366;SDS011;16877;48.810;9.282;2023-01-28T04:44:02;7.80;;;7.10;;
1366;SDS011;16877;48.810;9.282;2023-01-28T04:46:30;7.30;;;6.57;;
1366;SDS011;16877;48.810;9.282;2023-01-28T04:48:57;7.07;;;6.40;;
1366;SDS011;16877;48.810;9.282;2023-01-28T04:51:25;8.37;;;7.57;;
1366;SDS011;16877;48.810;9.282;2023-01-28T04:53:52;7.03;;;6.37;;
1366;SDS011;16877;48.810;9.282;2023-01-28T04:56:19;7.10;;;6.23;;
1366;SDS011;16877;48.810;9.282;2023-01-28T04:58:48;7.87;;;7.07;;
1366;SDS011;16877;48.810;9.282;2023-01-28T05:01:16;8.67;;;7.87;;
1366;SDS011;16877;48.810;9.282;2023-01-28T05:03:43;7.87;;;7.10;;
1366;SDS011;16877;48.810;9.282;2023-01-28T05:06:11;7.77;;;6.97;;
1366;SDS011;16877;48.810;9.282;2023-01-28T05:08:38;7.10;;;6.40;;
1366;SDS011;16877;48.810;9.282;2023-01-28T05:11:06;7.77;;;6.97;;
1366;SDS011;16877;48.810;9.282;2023-01-28T05:13:33;7.30;;;6.60;;
1366;SDS011;16877;48.810;9.282;2023-01-28T05:16:02;8.00;;;7.23;;
1366;SDS011;16877;48.810;9.282;2023-01-28T05:18:30;7.40;;;6.70;;
1366;SDS011;16877;48.810;9.282;2023-01-28T05:20:57;7.87;;;7.13;;
1366;SDS011;16877;48.810;9.282;2023-01-28T05:23:25;7.40;;;6.70;;
1366;SDS011;16877;48.810;9.282;2023-01-28T05:25:52;8.50;;;7.70;;
1366;SDS011;16877;48.810;9.282;2023-01-28T05:28:20;7.70;;;6.90;;
1366;SDS011;16877;48.810;9.282;2023-01-28T05:30:48;7.20;;;6.50;;
1366;SDS011;16877;48.810;9.282;2023-01-28T05:33:17;8.07;;;7.27;;
1366;SDS011;16877;48.810;9.282;2023-01-28T05:35:49;8.00;;;7.20;;
1366;SDS011;16877;48.810;9.282;2023-01-28T05:38:16;7.30;;;6.00;;
1366;SDS011;16877;48.810;9.282;2023-01-28T05:40:43;7.50;;;6.77;;
1366;SDS011;16877;48.810;9.282;2023-01-28T05:43:12;8.23;;;7.43;;
1366;SDS011;16877;48.810;9.282;2023-01-28T05:45:42;8.33;;;7.50;;
1366;SDS011;16877;48.810;9.282;2023-01-28T05:48:09;8.23;;;7.43;;
1366;SDS011;16877;48.810;9.282;2023-01-28T05:50:39;7.47;;;6.77;;
1366;SDS011;16877;48.810;9.282;2023-01-28T05:53:06;7.80;;;7.00;;
1366;SDS011;16877;48.810;9.282;2023-01-28T05:55:35;7.43;;;6.70;;
1366;SDS011;16877;48.810;9.282;2023-01-28T05:58:02;7.70;;;6.87;;
1366;SDS011;16877;48.810;9.282;2023-01-28T06:00:29;8.07;;;6.60;;
1366;SDS011;16877;48.810;9.282;2023-01-28T06:02:57;7.90;;;7.10;;
1366;SDS011;16877;48.810;9.282;2023-01-28T06:05:24;8.60;;;7.57;;
1366;SDS011;16877;48.810;9.282;2023-01-28T06:07:53;7.90;;;7.10;;
1366;SDS011;16877;48.810;9.282;2023-01-28T06:10:21;7.93;;;7.13;;
1366;SDS011;16877;48.810;9.282;2023-01-28T06:12:48;7.80;;;7.00;;
1366;SDS011;16877;48.810;9.282;2023-01-28T06:15:16;9.43;;;8.53;;
1366;SDS011;16877;48.810;9.282;2023-01-28T06:17:44;7.53;;;6.83;;
1366;SDS011;16877;48.810;9.282;2023-01-28T06:20:12;7.73;;;7.03;;
1366;SDS011;16877;48.810;9.282;2023-01-28T06:22:39;8.57;;;7.77;;
1366;SDS011;16877;48.810;9.282;2023-01-28T06:25:09;9.53;;;8.07;;
1366;SDS011;16877;48.810;9.282;2023-01-28T06:27:37;8.67;;;7.67;;
1366;SDS011;16877;48.810;9.282;2023-01-28T06:30:05;7.50;;;6.80;;
1366;SDS011;16877;48.810;9.282;2023-01-28T06:32:33;8.70;;;7.80;;
1366;SDS011;16877;48.810;9.282;2023-01-28T06:35:00;8.93;;;8.03;;
1366;SDS011;16877;48.810;9.282;2023-01-28T06:37:28;8.17;;;7.37;;
1366;SDS011;16877;48.810;9.282;2023-01-28T06:39:56;8.27;;;7.47;;
1366;SDS011;16877;48.810;9.282;2023-01-28T06:42:25;7.73;;;7.03;;
1366;SDS011;16877;48.810;9.282;2023-01-28T06:44:52;8.40;;;7.50;;
1366;SDS011;16877;48.810;9.282;2023-01-28T06:47:20;9.53;;;8.53;;
1366;SDS011;16877;48.810;9.282;2023-01-28T06:49:47;8.53;;;7.53;;
1366;SDS011;16877;48.810;9.282;2023-01-28T06:52:14;8.27;;;7.30;;
1366;SDS011;16877;48.810;9.282;2023-01-28T06:54:42;9.23;;;8.33;;
1366;SDS011;16877;48.810;9.282;2023-01-28T06:57:09;8.43;;;7.63;;
1366;SDS011;16877;48.810;9.282;2023-01-28T06:59:40;8.60;;;7.80;;
1366;SDS011;16877;48.810;9.282;2023-01-28T07:02:08;8.57;;;7.73;;
1366;SDS011;16877;48.810;9.282;2023-01-28T07:04:37;9.10;;;8.20;;
1366;SDS011;16877;48.810;9.282;2023-01-28T07:07:04;9.40;;;8.50;;
1366;SDS011;16877;48.810;9.282;2023-01-28T07:09:31;8.83;;;7.90;;
1366;SDS011;16877;48.810;9.282;2023-01-28T07:11:59;9.00;;;8.10;;
1366;SDS011;16877;48.810;9.282;2023-01-28T07:14:29;7.93;;;7.23;;
1366;SDS011;16877;48.810;9.282;2023-01-28T07:17:00;8.67;;;7.83;;
1366;SDS011;16877;48.810;9.282;2023-01-28T07:19:32;9.10;;;7.97;;
1366;SDS011;16877;48.810;9.282;2023-01-28T07:21:59;9.77;;;8.77;;
1366;SDS011;16877;48.810;9.282;2023-01-28T07:24:29;9.70;;;8.80;;
1366;SDS011;16877;48.810;9.282;2023-01-28T07:26:58;8.70;;;7.80;;
1366;SDS011;16877;48.810;9.282;2023-01-28T07:29:27;8.40;;;7.60;;
1366;SDS011;16877;48.810;9.282;2023-01-28T07:31:55;11.60;;;8.13;;
1366;SDS011;16877;48.810;9.282;2023-01-28T07:34:30;9.80;;;8.53;;
1366;SDS011;16877;48.810;9.282;2023-01-28T07:37:02;9.43;;;8.30;;
1366;SDS011;16877;48.810;9.282;2023-01-28T07:39:30;8.63;;;7.83;;
1366;SDS011;16877;48.810;9.282;2023-01-28T07:42:00;8.37;;;7.47;;
1366;SDS011;16877;48.810;9.282;2023-01-28T07:44:30;9.17;;;8.10;;
1366;SDS011;16877;48.810;9.282;2023-01-28T07:46:58;8.93;;;8.10;;
1366;SDS011;16877;48.810;9.282;2023-01-28T07:49:27;8.90;;;7.77;;
1366;SDS011;16877;48.810;9.282;2023-01-28T07:51:56;8.90;;;8.07;;
1366;SDS011;16877;48.810;9.282;2023-01-28T07:54:24;9.73;;;8.73;;
1366;SDS011;16877;48.810;9.282;2023-01-28T07:56:56;10.50;;;8.90;;
1366;SDS011;16877;48.810;9.282;2023-01-28T07:59:42;10.50;;;9.43;;
1366;SDS011;16877;48.810;9.282;2023-01-28T08:02:11;10.03;;;9.13;;
1366;SDS011;16877;48.810;9.282;2023-01-28T08:04:41;9.93;;;8.90;;
1366;SDS011;16877;48.810;9.282;2023-01-28T08:07:08;11.20;;;9.17;;
1366;SDS011;16877;48.810;9.282;2023-01-28T08:09:36;11.17;;;10.07;;
1366;SDS011;16877;48.810;9.282;2023-01-28T08:12:04;10.73;;;9.20;;
1366;SDS011;16877;48.810;9.282;2023-01-28T08:14:32;9.97;;;8.97;;
1366;SDS011;16877;48.810;9.282;2023-01-28T08:16:59;9.43;;;8.40;;
1366;SDS011;16877;48.810;9.282;2023-01-28T08:19:28;10.57;;;9.47;;
1366;SDS011;16877;48.810;9.282;2023-01-28T08:22:12;9.57;;;8.67;;
1366;SDS011;16877;48.810;9.282;2023-01-28T08:24:40;10.03;;;9.03;;
1366;SDS011;16877;48.810;9.282;2023-01-28T08:27:09;8.17;;;7.37;;
1366;SDS011;16877;48.810;9.282;2023-01-28T08:29:38;8.27;;;7.47;;
1366;SDS011;16877;48.810;9.282;2023-01-28T08:32:07;9.03;;;8.00;;
1366;SDS011;16877;48.810;9.282;2023-01-28T08:34:35;10.10;;;9.10;;
1366;SDS011;16877;48.810;9.282;2023-01-28T08:40:05;10.07;;;8.20;;
1366;SDS011;16877;48.810;9.282;2023-01-28T08:42:35;10.17;;;9.20;;
1366;SDS011;16877;48.810;9.282;2023-01-28T08:45:03;9.40;;;8.60;;
1366;SDS011;16877;48.810;9.282;2023-01-28T08:47:31;9.27;;;8.37;;
1366;SDS011;16877;48.810;9.282;2023-01-28T08:49:59;8.67;;;7.87;;
1366;SDS011;16877;48.810;9.282;2023-01-28T08:52:27;8.40;;;7.60;;
1366;SDS011;16877;48.810;9.282;2023-01-28T08:54:57;13.57;;;8.97;;
1366;SDS011;16877;48.810;9.282;2023-01-28T08:57:24;9.83;;;8.50;;
1366;SDS011;16877;48.810;9.282;2023-01-28T08:59:56;10.50;;;9.50;;
1366;SDS011;16877;48.810;9.282;2023-01-28T09:02:29;11.53;;;8.83;;
1366;SDS011;16877;48.810;9.282;2023-01-28T09:05:07;10.20;;;9.20;;
1366;SDS011;16877;48.810;9.282;2023-01-28T09:07:37;9.80;;;8.80;;
1366;SDS011;16877;48.810;9.282;2023-01-28T09:10:21;10.73;;;9.63;;
1366;SDS011;16877;48.810;9.282;2023-01-28T09:12:50;12.60;;;9.50;;
1366;SDS011;16877;48.810;9.282;2023-01-28T09:15:25;9.80;;;8.87;;
1366;SDS011;16877;48.810;9.282;2023-01-28T09:17:56;9.97;;;8.97;;
1366;SDS011;16877;48.810;9.282;2023-01-28T09:20:24;10.40;;;9.40;;
1366;SDS011;16877;48.810;9.282;2023-01-28T09:22:51;10.00;;;9.00;;
1366;SDS011;16877;48.810;9.282;2023-01-28T09:25:21;12.33;;;11.03;;
1366;SDS011;16877;48.810;9.282;2023-01-28T09:27:49;11.53;;;10.43;;
1366;SDS011;16877;48.810;9.282;2023-01-28T09:30:32;10.50;;;9.40;;
1366;SDS011;16877;48.810;9.282;2023-01-28T09:33:01;11.63;;;10.30;;
1366;SDS011;16877;48.810;9.282;2023-01-28T09:35:28;10.47;;;9.00;;
1366;SDS011;16877;48.810;9.282;2023-01-28T09:37:55;10.53;;;9.53;;
1366;SDS011;16877;48.810;9.282;2023-01-28T09:40:28;13.67;;;11.50;;
1366;SDS011;16877;48.810;9.282;2023-01-28T09:43:02;13.77;;;12.27;;
1366;SDS011;16877;48.810;9.282;2023-01-28T09:46:09;13.23;;;11.93;;
1366;SDS011;16877;48.810;9.282;2023-01-28T09:48:58;12.70;;;11.40;;
1366;SDS011;16877;48.810;9.282;2023-01-28T09:51:31;13.37;;;11.97;;
1366;SDS011;16877;48.810;9.282;2023-01-28T09:54:11;12.57;;;11.27;;
1366;SDS011;16877;48.810;9.282;2023-01-28T09:56:55;14.23;;;12.80;;
1366;SDS011;16877;48.810;9.282;2023-01-28T09:59:30;12.90;;;11.60;;
1366;SDS011;16877;48.810;9.282;2023-01-28T10:02:01;11.23;;;10.13;;
1366;SDS011;16877;48.810;9.282;2023-01-28T10:04:45;11.30;;;10.10;;
1366;SDS011;16877;48.810;9.282;2023-01-28T10:07:21;14.80;;;11.70;;
1366;SDS011;16877;48.810;9.282;2023-01-28T10:10:00;10.90;;;9.80;;
1366;SDS011;16877;48.810;9.282;2023-01-28T10:12:36;12.20;;;11.00;;
1366;SDS011;16877;48.810;9.282;2023-01-28T10:15:18;12.80;;;11.47;;
1366;SDS011;16877;48.810;9.282;2023-01-28T10:18:06;12.63;;;11.30;;
1366;SDS011;16877;48.810;9.282;2023-01-28T10:20:36;14.60;;;12.47;;
1366;SDS011;16877;48.810;9.282;2023-01-28T10:23:10;13.17;;;11.83;;
1366;SDS011;16877;48.810;9.282;2023-01-28T10:25:43;12.27;;;11.07;;
1366;SDS011;16877;48.810;9.282;2023-01-28T10:28:19;14.27;;;12.77;;
1366;SDS011;16877;48.810;9.282;2023-01-28T10:30:49;14.00;;;12.50;;
1366;SDS011;16877;48.810;9.282;2023-01-28T10:33:32;12.60;;;11.30;;
1366;SDS011;16877;48.810;9.282;2023-01-28T10:36:04;11.97;;;10.77;;
1366;SDS011;16877;48.810;9.282;2023-01-28T10:38:38;13.73;;;12.37;;
1366;SDS011;16877;48.810;9.282;2023-01-28T10:41:08;14.20;;;12.80;;
1366;SDS011;16877;48.810;9.282;2023-01-28T10:43:40;15.10;;;13.40;;
1366;SDS011;16877;48.810;9.282;2023-01-28T10:46:08;13.30;;;11.90;;
1366;SDS011;16877;48.810;9.282;2023-01-28T10:48:55;12.90;;;11.53;;
1366;SDS011;16877;48.810;9.282;2023-01-28T10:51:31;13.83;;;12.43;;
1366;SDS011;16877;48.810;9.282;2023-01-28T10:54:01;12.90;;;11.60;;
1366;SDS011;16877;48.810;9.282;2023-01-28T10:56:30;15.10;;;12.67;;
1366;SDS011;16877;48.810;9.282;2023-01-28T10:59:02;13.87;;;12.47;;
1366;SDS011;16877;48.810;9.282;2023-01-28T11:01:37;14.30;;;12.90;;
1366;SDS011;16877;48.810;9.282;2023-01-28T11:04:14;14.33;;;11.87;;
1366;SDS011;16877;48.810;9.282;2023-01-28T11:06:50;15.00;;;12.50;;
1366;SDS011;16877;48.810;9.282;2023-01-28T11:09:23;13.37;;;11.97;;
1366;SDS011;16877;48.810;9.282;2023-01-28T11:11:55;14.20;;;12.70;;
1366;SDS011;16877;48.810;9.282;2023-01-28T11:14:24;13.30;;;11.90;;
1366;SDS011;16877;48.810;9.282;2023-01-28T11:16:52;14.40;;;12.90;;
1366;SDS011;16877;48.810;9.282;2023-01-28T11:19:24;13.13;;;11.80;;
1366;SDS011;16877;48.810;9.282;2023-01-28T11:21:56;14.73;;;13.23;;
1366;SDS011;16877;48.810;9.282;2023-01-28T11:24:25;13.67;;;12.27;;
1366;SDS011;16877;48.810;9.282;2023-01-28T11:26:55;13.43;;;12.03;;
1366;SDS011;16877;48.810;9.282;2023-01-28T11:29:27;13.87;;;12.47;;
1366;SDS011;16877;48.810;9.282;2023-01-28T11:31:57;13.80;;;12.40;;
1366;SDS011;16877;48.810;9.282;2023-01-28T11:34:26;15.10;;;13.50;;
1366;SDS011;16877;48.810;9.282;2023-01-28T11:37:00;14.00;;;11.70;;
1366;SDS011;16877;48.810;9.282;2023-01-28T11:39:30;14.43;;;12.00;;
1366;SDS011;16877;48.810;9.282;2023-01-28T11:42:09;14.30;;;12.80;;
1366;SDS011;16877;48.810;9.282;2023-01-28T11:44:41;13.57;;;12.13;;
1366;SDS011;16877;48.810;9.282;2023-01-28T11:47:12;14.83;;;13.33;;
1366;SDS011;16877;48.810;9.282;2023-01-28T11:53:04;12.77;;;11.47;;
1366;SDS011;16877;48.810;9.282;2023-01-28T11:55:49;13.27;;;11.87;;
1366;SDS011;16877;48.810;9.282;2023-01-28T11:58:29;14.70;;;13.17;;
1366;SDS011;16877;48.810;9.282;2023-01-28T12:01:06;14.40;;;12.80;;
1366;SDS011;16877;48.810;9.282;2023-01-28T12:03:42;13.93;;;12.40;;
1366;SDS011;16877;48.810;9.282;2023-01-28T12:06:21;14.07;;;12.50;;
1366;SDS011;16877;48.810;9.282;2023-01-28T12:09:03;14.03;;;12.63;;
1366;SDS011;16877;48.810;9.282;2023-01-28T12:11:41;15.50;;;13.67;;
1366;SDS011;16877;48.810;9.282;2023-01-28T12:14:34;15.10;;;13.53;;
1366;SDS011;16877;48.810;9.282;2023-01-28T12:17:12;15.43;;;13.63;;
1366;SDS011;16877;48.810;9.282;2023-01-28T12:19:56;15.43;;;13.83;;
1366;SDS011;16877;48.810;9.282;2023-01-28T12:22:35;13.93;;;12.07;;
1366;SDS011;16877;48.810;9.282;2023-01-28T12:25:20;15.77;;;13.20;;
1366;SDS011;16877;48.810;9.282;2023-01-28T12:28:14;14.40;;;12.73;;
1366;SDS011;16877;48.810;9.282;2023-01-28T12:30:53;14.93;;;13.33;;
1366;SDS011;16877;48.810;9.282;2023-01-28T12:33:37;14.70;;;13.20;;
1366;SDS011;16877;48.810;9.282;2023-01-28T12:36:20;15.03;;;13.50;;
1366;SDS011;16877;48.810;9.282;2023-01-28T12:39:25;15.03;;;13.40;;
1366;SDS011;16877;48.810;9.282;2023-01-28T12:42:01;15.70;;;13.90;;
1366;SDS011;16877;48.810;9.282;2023-01-28T12:44:32;15.77;;;13.90;;
1366;SDS011;16877;48.810;9.282;2023-01-28T12:47:14;15.80;;;14.10;;
1366;SDS011;16877;48.810;9.282;2023-01-28T12:49:48;16.20;;;14.50;;
1366;SDS011;16877;48.810;9.282;2023-01-28T12:52:20;14.73;;;13.03;;
1366;SDS011;16877;48.810;9.282;2023-01-28T12:54:53;15.10;;;13.43;;
1366;SDS011;16877;48.810;9.282;2023-01-28T12:57:26;14.70;;;12.90;;
1366;SDS011;16877;48.810;9.282;2023-01-28T12:59:56;14.97;;;12.17;;
1366;SDS011;16877;48.810;9.282;2023-01-28T13:02:31;14.80;;;11.27;;
1366;SDS011;16877;48.810;9.282;2023-01-28T13:05:05;13.03;;;10.93;;
1366;SDS011;16877;48.810;9.282;2023-01-28T13:07:37;11.40;;;10.20;;
1366;SDS011;16877;48.810;9.282;2023-01-28T13:10:11;12.27;;;10.93;;
1366;SDS011;16877;48.810;9.282;2023-01-28T13:12:46;11.57;;;10.37;;
1366;SDS011;16877;48.810;9.282;2023-01-28T13:15:16;13.20;;;10.00;;
1366;SDS011;16877;48.810;9.282;2023-01-28T13:18:01;10.70;;;9.60;;
1366;SDS011;16877;48.810;9.282;2023-01-28T13:20:37;11.67;;;10.47;;
1366;SDS011;16877;48.810;9.282;2023-01-28T13:23:21;10.37;;;9.10;;
1366;SDS011;16877;48.810;9.282;2023-01-28T13:26:10;9.73;;;8.70;;
1366;SDS011;16877;48.810;9.282;2023-01-28T13:28:52;8.53;;;7.07;;
1366;SDS011;16877;48.810;9.282;2023-01-28T13:31:35;10.73;;;9.00;;
1366;SDS011;16877;48.810;9.282;2023-01-28T13:34:04;10.80;;;7.77;;
1366;SDS011;16877;48.810;9.282;2023-01-28T13:36:36;7.77;;;6.83;;
1366;SDS011;16877;48.810;9.282;2023-01-28T13:39:05;9.50;;;7.80;;
1366;SDS011;16877;48.810;9.282;2023-01-28T13:41:41;8.77;;;7.10;;
1366;SDS011;16877;48.810;9.282;2023-01-28T13:44:20;7.83;;;6.60;;
1366;SDS011;16877;48.810;9.282;2023-01-28T13:46:54;9.23;;;8.17;;
1366;SDS011;16877;48.810;9.282;2023-01-28T13:49:25;10.40;;;8.80;;
1366;SDS011;16877;48.810;9.282;2023-01-28T13:52:00;9.03;;;8.13;;
1366;SDS011;16877;48.810;9.282;2023-01-28T13:54:33;8.90;;;7.77;;
1366;SDS011;16877;48.810;9.282;2023-01-28T13:57:08;9.07;;;7.90;;
1366;SDS011;16877;48.810;9.282;2023-01-28T13:59:59;15.67;;;9.70;;
1366;SDS011;16877;48.810;9.282;2023-01-28T14:06:07;11.20;;;8.70;;
1366;SDS011;16877;48.810;9.282;2023-01-28T14:11:56;14.40;;;9.63;;
1366;SDS011;16877;48.810;9.282;2023-01-28T14:17:43;9.40;;;7.83;;
1366;SDS011;16877;48.810;9.282;2023-01-28T14:20:15;8.70;;;7.17;;
1366;SDS011;16877;48.810;9.282;2023-01-28T14:22:48;9.97;;;8.57;;
1366;SDS011;16877;48.810;9.282;2023-01-28T14:25:18;10.63;;;8.40;;
1366;SDS011;16877;48.810;9.282;2023-01-28T14:27:56;9.63;;;8.63;;
1366;SDS011;16877;48.810;9.282;2023-01-28T14:30:28;9.57;;;7.47;;
1366;SDS011;16877;48.810;9.282;2023-01-28T14:33:08;14.40;;;9.37;;
1366;SDS011;16877;48.810;9.282;2023-01-28T14:35:38;9.50;;;7.80;;
1366;SDS011;16877;48.810;9.282;2023-01-28T14:38:25;9.70;;;7.93;;
1366;SDS011;16877;48.810;9.282;2023-01-28T14:40:53;10.83;;;6.80;;
1366;SDS011;16877;48.810;9.282;2023-01-28T14:43:24;8.87;;;7.37;;
1366;SDS011;16877;48.810;9.282;2023-01-28T14:45:56;7.97;;;6.93;;
1366;SDS011;16877;48.810;9.282;2023-01-28T14:48:35;8.97;;;7.87;;
1366;SDS011;16877;48.810;9.282;2023-01-28T14:51:14;9.57;;;8.53;;
1366;SDS011;16877;48.810;9.282;2023-01-28T14:54:01;8.40;;;7.50;;
1366;SDS011;16877;48.810;9.282;2023-01-28T14:56:44;7.13;;;6.43;;
1366;SDS011;16877;48.810;9.282;2023-01-28T14:59:28;7.53;;;6.70;;
1366;SDS011;16877;48.810;9.282;2023-01-28T15:02:09;7.40;;;6.43;;
1366;SDS011;16877;48.810;9.282;2023-01-28T15:04:43;8.17;;;6.23;;
1366;SDS011;16877;48.810;9.282;2023-01-28T15:07:14;6.90;;;5.93;;
1366;SDS011;16877;48.810;9.282;2023-01-28T15:09:43;7.20;;;6.50;;
1366;SDS011;16877;48.810;9.282;2023-01-28T15:12:11;7.77;;;6.97;;
1366;SDS011;16877;48.810;9.282;2023-01-28T15:14:41;6.07;;;5.47;;
1366;SDS011;16877;48.810;9.282;2023-01-28T15:17:18;7.20;;;6.50;;
1366;SDS011;16877;48.810;9.282;2023-01-28T15:19:49;6.30;;;5.70;;
1366;SDS011;16877;48.810;9.282;2023-01-28T15:22:18;6.73;;;5.57;;
1366;SDS011;16877;48.810;9.282;2023-01-28T15:24:49;6.00;;;5.20;;
1366;SDS011;16877;48.810;9.282;2023-01-28T15:27:18;6.50;;;5.83;;
1366;SDS011;16877;48.810;9.282;2023-01-28T15:29:52;7.23;;;6.10;;
1366;SDS011;16877;48.810;9.282;2023-01-28T15:32:21;5.90;;;5.30;;
1366;SDS011;16877;48.810;9.282;2023-01-28T15:34:50;6.20;;;5.60;;
1366;SDS011;16877;48.810;9.282;2023-01-28T15:37:19;7.00;;;5.63;;
1366;SDS011;16877;48.810;9.282;2023-01-28T15:39:47;6.80;;;5.67;;
1366;SDS011;16877;48.810;9.282;2023-01-28T15:42:25;5.20;;;4.70;;